sensor_id;sensor_type;location;lat;lon;timestamp;P1;durP1;ratioP1;P2;durP2;ratioP2
48993;SDS011;34804;49.214;12.276;2022-07-31T00:02:06;9.35;;;5.53;;
48993;SDS011;34804;49.214;12.276;2022-07-31T00:04:33;7.25;;;5.63;;
48993;SDS011;34804;49.214;12.276;2022-07-31T00:07:00;7.55;;;5.30;;
48993;SDS011;34804;49.214;12.276;2022-07-31T00:09:27;9.38;;;6.18;;
48993;SDS011;34804;49.214;12.276;2022-07-31T00:12:14;8.13;;;6.32;;
48993;SDS011;34804;49.214;12.276;2022-07-31T00:14:43;8.80;;;6.60;;
48993;SDS011;34804;49.214;12.276;2022-07-31T00:17:10;8.95;;;5.75;;
48993;SDS011;34804;49.214;12.276;2022-07-31T00:19:37;8.50;;;6.13;;
48993;SDS011;34804;49.214;12.276;2022-07-31T00:22:03;9.32;;;7.22;;
48993;SDS011;34804;49.214;12.276;2022-07-31T00:24:30;8.40;;;6.80;;
48993;SDS011;34804;49.214;12.276;2022-07-31T00:26:57;8.02;;;5.90;;
48993;SDS011;34804;49.214;12.276;2022-07-31T00:29:24;7.85;;;6.13;;
48993;SDS011;34804;49.214;12.276;2022-07-31T00:31:51;8.68;;;6.18;;
48993;SDS011;34804;49.214;12.276;2022-07-31T00:34:18;11.27;;;6.05;;
48993;SDS011;34804;49.214;12.276;2022-07-31T00:36:44;9.07;;;6.93;;
48993;SDS011;34804;49.214;12.276;2022-07-31T00:39:11;9.45;;;7.25;;
48993;SDS011;34804;49.214;12.276;2022-07-31T00:41:42;9.35;;;6.30;;
48993;SDS011;34804;49.214;12.276;2022-07-31T00:44:11;8.05;;;6.10;;
48993;SDS011;34804;49.214;12.276;2022-07-31T00:46:39;9.07;;;5.97;;
48993;SDS011;34804;49.214;12.276;2022-07-31T00:49:07;13.73;;;7.18;;
48993;SDS011;34804;49.214;12.276;2022-07-31T00:51:36;8.68;;;7.07;;
48993;SDS011;34804;49.214;12.276;2022-07-31T00:54:03;8.90;;;6.70;;
48993;SDS011;34804;49.214;12.276;2022-07-31T00:56:31;11.55;;;7.25;;
48993;SDS011;34804;49.214;12.276;2022-07-31T00:58:58;8.38;;;6.60;;
48993;SDS011;34804;49.214;12.276;2022-07-31T01:01:25;7.55;;;5.90;;
48993;SDS011;34804;49.214;12.276;2022-07-31T01:03:53;9.48;;;6.93;;
48993;SDS011;34804;49.214;12.276;2022-07-31T01:06:20;11.35;;;7.65;;
48993;SDS011;34804;49.214;12.276;2022-07-31T01:08:46;13.63;;;8.50;;
48993;SDS011;34804;49.214;12.276;2022-07-31T01:14:15;21.35;;;8.25;;
48993;SDS011;34804;49.214;12.276;2022-07-31T01:16:47;13.88;;;8.52;;
48993;SDS011;34804;49.214;12.276;2022-07-31T01:19:36;14.60;;;8.80;;
48993;SDS011;34804;49.214;12.276;2022-07-31T01:25:15;16.83;;;9.30;;
48993;SDS011;34804;49.214;12.276;2022-07-31T01:27:51;32.40;;;8.00;;
48993;SDS011;34804;49.214;12.276;2022-07-31T01:30:34;15.63;;;8.68;;
48993;SDS011;34804;49.214;12.276;2022-07-31T01:33:09;9.95;;;7.43;;
48993;SDS011;34804;49.214;12.276;2022-07-31T01:35:44;11.57;;;7.13;;
48993;SDS011;34804;49.214;12.276;2022-07-31T01:38:21;17.88;;;8.68;;
48993;SDS011;34804;49.214;12.276;2022-07-31T01:40:57;14.73;;;10.23;;
48993;SDS011;34804;49.214;12.276;2022-07-31T01:43:28;11.55;;;8.82;;
48993;SDS011;34804;49.214;12.276;2022-07-31T01:45:58;9.13;;;7.60;;
48993;SDS011;34804;49.214;12.276;2022-07-31T01:48:27;11.90;;;8.77;;
48993;SDS011;34804;49.214;12.276;2022-07-31T01:50:59;17.40;;;7.88;;
48993;SDS011;34804;49.214;12.276;2022-07-31T01:53:28;18.42;;;7.60;;
48993;SDS011;34804;49.214;12.276;2022-07-31T01:56:00;12.38;;;8.55;;
48993;SDS011;34804;49.214;12.276;2022-07-31T01:58:37;14.00;;;8.05;;
48993;SDS011;34804;49.214;12.276;2022-07-31T02:01:05;12.98;;;8.43;;
48993;SDS011;34804;49.214;12.276;2022-07-31T02:03:37;21.20;;;9.40;;
48993;SDS011;34804;49.214;12.276;2022-07-31T02:08:38;13.27;;;8.35;;
48993;SDS011;34804;49.214;12.276;2022-07-31T02:11:07;12.38;;;8.20;;
48993;SDS011;34804;49.214;12.276;2022-07-31T02:13:34;9.25;;;7.10;;
48993;SDS011;34804;49.214;12.276;2022-07-31T02:16:02;23.63;;;8.50;;
48993;SDS011;34804;49.214;12.276;2022-07-31T02:18:31;15.63;;;7.82;;
48993;SDS011;34804;49.214;12.276;2022-07-31T02:20:59;10.65;;;7.28;;
48993;SDS011;34804;49.214;12.276;2022-07-31T02:23:26;9.57;;;7.80;;
48993;SDS011;34804;49.214;12.276;2022-07-31T02:25:53;9.60;;;7.65;;
48993;SDS011;34804;49.214;12.276;2022-07-31T02:28:21;9.27;;;7.15;;
48993;SDS011;34804;49.214;12.276;2022-07-31T02:30:51;10.40;;;7.88;;
48993;SDS011;34804;49.214;12.276;2022-07-31T02:33:20;15.52;;;7.53;;
48993;SDS011;34804;49.214;12.276;2022-07-31T02:35:49;24.40;;;7.20;;
48993;SDS011;34804;49.214;12.276;2022-07-31T02:38:19;21.75;;;7.65;;
48993;SDS011;34804;49.214;12.276;2022-07-31T02:40:49;17.52;;;8.05;;
48993;SDS011;34804;49.214;12.276;2022-07-31T02:43:19;11.82;;;7.25;;
48993;SDS011;34804;49.214;12.276;2022-07-31T02:45:46;8.95;;;6.93;;
48993;SDS011;34804;49.214;12.276;2022-07-31T02:48:13;13.10;;;6.68;;
48993;SDS011;34804;49.214;12.276;2022-07-31T02:50:41;10.73;;;7.13;;
48993;SDS011;34804;49.214;12.276;2022-07-31T02:53:08;17.25;;;6.80;;
48993;SDS011;34804;49.214;12.276;2022-07-31T02:55:35;21.38;;;6.70;;
48993;SDS011;34804;49.214;12.276;2022-07-31T02:58:02;13.80;;;7.03;;
48993;SDS011;34804;49.214;12.276;2022-07-31T03:00:29;17.35;;;7.13;;
48993;SDS011;34804;49.214;12.276;2022-07-31T03:02:56;16.92;;;8.10;;
48993;SDS011;34804;49.214;12.276;2022-07-31T03:05:23;24.70;;;8.30;;
48993;SDS011;34804;49.214;12.276;2022-07-31T03:07:50;16.63;;;8.10;;
48993;SDS011;34804;49.214;12.276;2022-07-31T03:10:17;9.65;;;7.43;;
48993;SDS011;34804;49.214;12.276;2022-07-31T03:12:45;12.45;;;8.02;;
48993;SDS011;34804;49.214;12.276;2022-07-31T03:15:18;12.02;;;7.82;;
48993;SDS011;34804;49.214;12.276;2022-07-31T03:17:47;22.35;;;8.90;;
48993;SDS011;34804;49.214;12.276;2022-07-31T03:20:15;54.40;;;10.35;;
48993;SDS011;34804;49.214;12.276;2022-07-31T03:22:43;44.40;;;9.93;;
48993;SDS011;34804;49.214;12.276;2022-07-31T03:25:10;44.90;;;10.13;;
48993;SDS011;34804;49.214;12.276;2022-07-31T03:27:48;47.00;;;9.57;;
48993;SDS011;34804;49.214;12.276;2022-07-31T03:30:21;15.35;;;8.60;;
48993;SDS011;34804;49.214;12.276;2022-07-31T03:32:52;20.38;;;7.68;;
48993;SDS011;34804;49.214;12.276;2022-07-31T03:35:20;22.35;;;8.45;;
48993;SDS011;34804;49.214;12.276;2022-07-31T03:37:48;22.95;;;9.07;;
48993;SDS011;34804;49.214;12.276;2022-07-31T03:40:15;42.17;;;10.35;;
48993;SDS011;34804;49.214;12.276;2022-07-31T03:42:41;33.85;;;9.05;;
48993;SDS011;34804;49.214;12.276;2022-07-31T03:45:09;26.63;;;9.25;;
48993;SDS011;34804;49.214;12.276;2022-07-31T03:47:37;37.92;;;9.55;;
48993;SDS011;34804;49.214;12.276;2022-07-31T03:50:04;38.75;;;8.70;;
48993;SDS011;34804;49.214;12.276;2022-07-31T03:52:32;35.55;;;7.80;;
48993;SDS011;34804;49.214;12.276;2022-07-31T03:55:00;46.60;;;9.13;;
48993;SDS011;34804;49.214;12.276;2022-07-31T03:57:28;48.72;;;9.77;;
48993;SDS011;34804;49.214;12.276;2022-07-31T04:00:00;59.00;;;9.27;;
48993;SDS011;34804;49.214;12.276;2022-07-31T04:02:30;44.83;;;8.70;;
48993;SDS011;34804;49.214;12.276;2022-07-31T04:04:57;37.72;;;9.45;;
48993;SDS011;34804;49.214;12.276;2022-07-31T04:07:25;67.72;;;9.88;;
48993;SDS011;34804;49.214;12.276;2022-07-31T04:09:52;63.65;;;10.57;;
48993;SDS011;34804;49.214;12.276;2022-07-31T04:12:19;69.07;;;10.32;;
48993;SDS011;34804;49.214;12.276;2022-07-31T04:14:46;105.75;;;12.13;;
48993;SDS011;34804;49.214;12.276;2022-07-31T04:17:13;75.72;;;9.32;;
48993;SDS011;34804;49.214;12.276;2022-07-31T04:19:40;72.70;;;10.73;;
48993;SDS011;34804;49.214;12.276;2022-07-31T04:22:06;62.40;;;10.32;;
48993;SDS011;34804;49.214;12.276;2022-07-31T04:24:34;76.35;;;10.45;;
48993;SDS011;34804;49.214;12.276;2022-07-31T04:27:01;71.82;;;10.70;;
48993;SDS011;34804;49.214;12.276;2022-07-31T04:29:36;69.40;;;11.13;;
48993;SDS011;34804;49.214;12.276;2022-07-31T04:32:03;60.88;;;9.23;;
48993;SDS011;34804;49.214;12.276;2022-07-31T04:34:31;28.90;;;9.27;;
48993;SDS011;34804;49.214;12.276;2022-07-31T04:36:57;14.65;;;7.97;;
48993;SDS011;34804;49.214;12.276;2022-07-31T04:39:24;19.50;;;7.10;;
48993;SDS011;34804;49.214;12.276;2022-07-31T04:41:51;63.22;;;9.35;;
48993;SDS011;34804;49.214;12.276;2022-07-31T04:44:18;12.55;;;7.40;;
48993;SDS011;34804;49.214;12.276;2022-07-31T04:46:45;30.60;;;8.57;;
48993;SDS011;34804;49.214;12.276;2022-07-31T04:49:12;28.95;;;7.03;;
48993;SDS011;34804;49.214;12.276;2022-07-31T04:51:41;52.30;;;7.65;;
48993;SDS011;34804;49.214;12.276;2022-07-31T04:54:08;43.83;;;7.72;;
48993;SDS011;34804;49.214;12.276;2022-07-31T04:56:35;43.72;;;7.00;;
48993;SDS011;34804;49.214;12.276;2022-07-31T04:59:08;17.90;;;7.75;;
48993;SDS011;34804;49.214;12.276;2022-07-31T05:01:37;15.10;;;6.78;;
48993;SDS011;34804;49.214;12.276;2022-07-31T05:04:05;24.50;;;6.65;;
48993;SDS011;34804;49.214;12.276;2022-07-31T05:06:36;35.20;;;7.03;;
48993;SDS011;34804;49.214;12.276;2022-07-31T05:09:12;30.08;;;7.55;;
48993;SDS011;34804;49.214;12.276;2022-07-31T05:11:49;18.98;;;8.00;;
48993;SDS011;34804;49.214;12.276;2022-07-31T05:14:17;13.18;;;7.40;;
48993;SDS011;34804;49.214;12.276;2022-07-31T05:16:45;17.13;;;6.68;;
48993;SDS011;34804;49.214;12.276;2022-07-31T05:19:13;18.83;;;7.43;;
48993;SDS011;34804;49.214;12.276;2022-07-31T05:21:41;12.05;;;6.95;;
48993;SDS011;34804;49.214;12.276;2022-07-31T05:24:18;29.08;;;9.25;;
48993;SDS011;34804;49.214;12.276;2022-07-31T05:26:59;12.48;;;7.90;;
48993;SDS011;34804;49.214;12.276;2022-07-31T05:29:30;20.58;;;8.55;;
48993;SDS011;34804;49.214;12.276;2022-07-31T05:31:58;30.92;;;8.93;;
48993;SDS011;34804;49.214;12.276;2022-07-31T05:34:29;20.58;;;9.55;;
48993;SDS011;34804;49.214;12.276;2022-07-31T05:36:59;16.85;;;9.15;;
48993;SDS011;34804;49.214;12.276;2022-07-31T05:39:28;17.48;;;10.23;;
48993;SDS011;34804;49.214;12.276;2022-07-31T05:41:55;11.55;;;8.65;;
48993;SDS011;34804;49.214;12.276;2022-07-31T05:44:22;15.02;;;10.00;;
48993;SDS011;34804;49.214;12.276;2022-07-31T05:46:49;13.15;;;10.82;;
48993;SDS011;34804;49.214;12.276;2022-07-31T05:49:15;13.70;;;10.55;;
48993;SDS011;34804;49.214;12.276;2022-07-31T05:51:43;15.18;;;10.38;;
48993;SDS011;34804;49.214;12.276;2022-07-31T05:54:10;16.10;;;10.73;;
48993;SDS011;34804;49.214;12.276;2022-07-31T05:56:37;13.20;;;10.68;;
48993;SDS011;34804;49.214;12.276;2022-07-31T05:59:04;14.68;;;11.02;;
48993;SDS011;34804;49.214;12.276;2022-07-31T06:01:30;13.93;;;10.95;;
48993;SDS011;34804;49.214;12.276;2022-07-31T06:03:57;13.77;;;11.15;;
48993;SDS011;34804;49.214;12.276;2022-07-31T06:06:24;14.02;;;10.88;;
48993;SDS011;34804;49.214;12.276;2022-07-31T06:08:51;13.27;;;10.32;;
48993;SDS011;34804;49.214;12.276;2022-07-31T06:11:18;14.75;;;11.30;;
48993;SDS011;34804;49.214;12.276;2022-07-31T06:13:45;13.75;;;10.23;;
48993;SDS011;34804;49.214;12.276;2022-07-31T06:16:12;14.20;;;10.82;;
48993;SDS011;34804;49.214;12.276;2022-07-31T06:18:40;13.35;;;10.57;;
48993;SDS011;34804;49.214;12.276;2022-07-31T06:21:07;12.38;;;10.55;;
48993;SDS011;34804;49.214;12.276;2022-07-31T06:23:35;14.32;;;11.40;;
48993;SDS011;34804;49.214;12.276;2022-07-31T06:26:02;14.43;;;10.65;;
48993;SDS011;34804;49.214;12.276;2022-07-31T06:28:30;11.90;;;10.32;;
48993;SDS011;34804;49.214;12.276;2022-07-31T06:31:18;15.32;;;10.55;;
48993;SDS011;34804;49.214;12.276;2022-07-31T06:33:46;12.98;;;10.85;;
48993;SDS011;34804;49.214;12.276;2022-07-31T06:36:15;12.15;;;9.85;;
48993;SDS011;34804;49.214;12.276;2022-07-31T06:38:43;12.77;;;10.07;;
48993;SDS011;34804;49.214;12.276;2022-07-31T06:41:11;11.40;;;9.55;;
48993;SDS011;34804;49.214;12.276;2022-07-31T06:43:58;10.88;;;8.27;;
48993;SDS011;34804;49.214;12.276;2022-07-31T06:46:25;9.50;;;8.25;;
48993;SDS011;34804;49.214;12.276;2022-07-31T06:48:51;9.25;;;7.85;;
48993;SDS011;34804;49.214;12.276;2022-07-31T06:51:18;9.68;;;7.90;;
48993;SDS011;34804;49.214;12.276;2022-07-31T06:53:57;9.57;;;8.30;;
48993;SDS011;34804;49.214;12.276;2022-07-31T06:56:28;9.60;;;8.10;;
48993;SDS011;34804;49.214;12.276;2022-07-31T06:58:55;9.30;;;7.93;;
48993;SDS011;34804;49.214;12.276;2022-07-31T07:01:23;9.60;;;7.75;;
48993;SDS011;34804;49.214;12.276;2022-07-31T07:03:50;9.23;;;7.43;;
48993;SDS011;34804;49.214;12.276;2022-07-31T07:06:17;9.23;;;7.85;;
48993;SDS011;34804;49.214;12.276;2022-07-31T07:08:44;9.75;;;7.60;;
48993;SDS011;34804;49.214;12.276;2022-07-31T07:11:11;11.23;;;8.13;;
48993;SDS011;34804;49.214;12.276;2022-07-31T07:13:39;14.40;;;8.57;;
48993;SDS011;34804;49.214;12.276;2022-07-31T07:16:12;10.85;;;7.63;;
48993;SDS011;34804;49.214;12.276;2022-07-31T07:18:39;12.93;;;8.52;;
48993;SDS011;34804;49.214;12.276;2022-07-31T07:21:08;12.80;;;7.85;;
48993;SDS011;34804;49.214;12.276;2022-07-31T07:23:35;11.30;;;8.10;;
48993;SDS011;34804;49.214;12.276;2022-07-31T07:26:02;10.63;;;8.18;;
48993;SDS011;34804;49.214;12.276;2022-07-31T07:28:29;12.93;;;8.95;;
48993;SDS011;34804;49.214;12.276;2022-07-31T07:30:56;10.80;;;8.40;;
48993;SDS011;34804;49.214;12.276;2022-07-31T07:33:23;13.13;;;7.72;;
48993;SDS011;34804;49.214;12.276;2022-07-31T07:36:07;9.77;;;7.82;;
48993;SDS011;34804;49.214;12.276;2022-07-31T07:38:50;9.73;;;7.70;;
48993;SDS011;34804;49.214;12.276;2022-07-31T07:41:20;14.63;;;7.70;;
48993;SDS011;34804;49.214;12.276;2022-07-31T07:43:48;8.10;;;6.47;;
48993;SDS011;34804;49.214;12.276;2022-07-31T07:46:18;10.55;;;7.78;;
48993;SDS011;34804;49.214;12.276;2022-07-31T07:48:46;10.15;;;7.15;;
48993;SDS011;34804;49.214;12.276;2022-07-31T07:51:14;7.85;;;6.15;;
48993;SDS011;34804;49.214;12.276;2022-07-31T07:53:41;8.27;;;6.28;;
48993;SDS011;34804;49.214;12.276;2022-07-31T07:56:08;12.32;;;6.68;;
48993;SDS011;34804;49.214;12.276;2022-07-31T07:58:34;9.63;;;6.30;;
48993;SDS011;34804;49.214;12.276;2022-07-31T08:01:01;9.80;;;6.65;;
48993;SDS011;34804;49.214;12.276;2022-07-31T08:03:28;7.57;;;5.13;;
48993;SDS011;34804;49.214;12.276;2022-07-31T08:06:15;7.32;;;5.28;;
48993;SDS011;34804;49.214;12.276;2022-07-31T08:08:42;8.85;;;5.20;;
48993;SDS011;34804;49.214;12.276;2022-07-31T08:11:09;6.60;;;5.32;;
48993;SDS011;34804;49.214;12.276;2022-07-31T08:13:42;8.35;;;5.30;;
48993;SDS011;34804;49.214;12.276;2022-07-31T08:16:15;6.25;;;4.28;;
48993;SDS011;34804;49.214;12.276;2022-07-31T08:18:43;8.13;;;4.43;;
48993;SDS011;34804;49.214;12.276;2022-07-31T08:21:09;7.88;;;5.03;;
48993;SDS011;34804;49.214;12.276;2022-07-31T08:23:36;6.20;;;4.50;;
48993;SDS011;34804;49.214;12.276;2022-07-31T08:26:03;8.40;;;5.05;;
48993;SDS011;34804;49.214;12.276;2022-07-31T08:28:31;5.90;;;4.68;;
48993;SDS011;34804;49.214;12.276;2022-07-31T08:30:58;6.80;;;4.50;;
48993;SDS011;34804;49.214;12.276;2022-07-31T08:33:26;6.03;;;4.40;;
48993;SDS011;34804;49.214;12.276;2022-07-31T08:35:53;6.38;;;4.65;;
48993;SDS011;34804;49.214;12.276;2022-07-31T08:38:20;6.03;;;4.43;;
48993;SDS011;34804;49.214;12.276;2022-07-31T08:40:47;5.97;;;4.50;;
48993;SDS011;34804;49.214;12.276;2022-07-31T08:43:14;7.18;;;4.35;;
48993;SDS011;34804;49.214;12.276;2022-07-31T08:46:01;6.22;;;4.70;;
48993;SDS011;34804;49.214;12.276;2022-07-31T08:48:30;6.38;;;3.85;;
48993;SDS011;34804;49.214;12.276;2022-07-31T08:51:00;6.55;;;4.47;;
48993;SDS011;34804;49.214;12.276;2022-07-31T08:53:29;6.88;;;4.72;;
48993;SDS011;34804;49.214;12.276;2022-07-31T08:55:58;6.70;;;4.20;;
48993;SDS011;34804;49.214;12.276;2022-07-31T08:58:25;5.53;;;4.20;;
48993;SDS011;34804;49.214;12.276;2022-07-31T09:00:52;7.00;;;4.65;;
48993;SDS011;34804;49.214;12.276;2022-07-31T09:03:19;7.57;;;4.45;;
48993;SDS011;34804;49.214;12.276;2022-07-31T09:05:46;5.88;;;4.10;;
48993;SDS011;34804;49.214;12.276;2022-07-31T09:08:13;6.22;;;4.20;;
48993;SDS011;34804;49.214;12.276;2022-07-31T09:10:40;6.72;;;4.25;;
48993;SDS011;34804;49.214;12.276;2022-07-31T09:13:15;5.35;;;3.90;;
48993;SDS011;34804;49.214;12.276;2022-07-31T09:15:44;7.72;;;4.65;;
48993;SDS011;34804;49.214;12.276;2022-07-31T09:18:18;5.47;;;3.70;;
48993;SDS011;34804;49.214;12.276;2022-07-31T09:20:57;5.88;;;3.97;;
48993;SDS011;34804;49.214;12.276;2022-07-31T09:23:28;8.27;;;4.20;;
48993;SDS011;34804;49.214;12.276;2022-07-31T09:30:59;5.75;;;4.13;;
48993;SDS011;34804;49.214;12.276;2022-07-31T09:33:27;6.22;;;4.22;;
48993;SDS011;34804;49.214;12.276;2022-07-31T09:35:55;6.80;;;4.38;;
48993;SDS011;34804;49.214;12.276;2022-07-31T09:44:00;7.38;;;4.40;;
48993;SDS011;34804;49.214;12.276;2022-07-31T09:46:42;6.72;;;4.00;;
48993;SDS011;34804;49.214;12.276;2022-07-31T09:49:11;5.88;;;4.03;;
48993;SDS011;34804;49.214;12.276;2022-07-31T09:51:45;6.07;;;3.67;;
48993;SDS011;34804;49.214;12.276;2022-07-31T09:54:20;5.75;;;3.10;;
48993;SDS011;34804;49.214;12.276;2022-07-31T09:56:50;6.45;;;2.85;;
48993;SDS011;34804;49.214;12.276;2022-07-31T09:59:17;6.97;;;2.60;;
48993;SDS011;34804;49.214;12.276;2022-07-31T10:01:45;6.20;;;2.50;;
48993;SDS011;34804;49.214;12.276;2022-07-31T10:04:16;5.13;;;2.30;;
48993;SDS011;34804;49.214;12.276;2022-07-31T10:06:47;6.80;;;2.83;;
48993;SDS011;34804;49.214;12.276;2022-07-31T10:09:17;5.70;;;2.83;;
48993;SDS011;34804;49.214;12.276;2022-07-31T10:11:46;4.82;;;2.85;;
48993;SDS011;34804;49.214;12.276;2022-07-31T10:14:20;6.00;;;2.42;;
48993;SDS011;34804;49.214;12.276;2022-07-31T10:16:54;5.88;;;2.85;;
48993;SDS011;34804;49.214;12.276;2022-07-31T10:19:24;6.03;;;2.55;;
48993;SDS011;34804;49.214;12.276;2022-07-31T10:21:55;7.90;;;2.50;;
48993;SDS011;34804;49.214;12.276;2022-07-31T10:24:25;5.47;;;2.50;;
48993;SDS011;34804;49.214;12.276;2022-07-31T10:26:57;5.78;;;2.40;;
48993;SDS011;34804;49.214;12.276;2022-07-31T10:31:58;5.25;;;2.17;;
48993;SDS011;34804;49.214;12.276;2022-07-31T10:34:26;6.55;;;2.17;;
48993;SDS011;34804;49.214;12.276;2022-07-31T10:36:53;4.97;;;2.58;;
48993;SDS011;34804;49.214;12.276;2022-07-31T10:39:42;7.43;;;2.55;;
48993;SDS011;34804;49.214;12.276;2022-07-31T10:42:24;4.38;;;2.60;;
48993;SDS011;34804;49.214;12.276;2022-07-31T10:45:07;6.30;;;2.70;;
48993;SDS011;34804;49.214;12.276;2022-07-31T10:47:39;4.82;;;2.58;;
48993;SDS011;34804;49.214;12.276;2022-07-31T10:50:23;4.40;;;2.42;;
48993;SDS011;34804;49.214;12.276;2022-07-31T10:52:52;3.60;;;1.75;;
48993;SDS011;34804;49.214;12.276;2022-07-31T10:55:25;4.28;;;1.98;;
48993;SDS011;34804;49.214;12.276;2022-07-31T10:57:55;4.75;;;2.10;;
48993;SDS011;34804;49.214;12.276;2022-07-31T11:00:39;5.10;;;2.17;;
48993;SDS011;34804;49.214;12.276;2022-07-31T11:03:16;4.95;;;2.20;;
48993;SDS011;34804;49.214;12.276;2022-07-31T11:05:51;6.63;;;2.45;;
48993;SDS011;34804;49.214;12.276;2022-07-31T11:08:38;6.00;;;2.00;;
48993;SDS011;34804;49.214;12.276;2022-07-31T11:11:10;5.13;;;2.05;;
48993;SDS011;34804;49.214;12.276;2022-07-31T11:13:46;3.90;;;1.90;;
48993;SDS011;34804;49.214;12.276;2022-07-31T11:16:15;4.85;;;1.98;;
48993;SDS011;34804;49.214;12.276;2022-07-31T11:18:43;4.18;;;1.80;;
48993;SDS011;34804;49.214;12.276;2022-07-31T11:21:28;4.65;;;1.90;;
48993;SDS011;34804;49.214;12.276;2022-07-31T11:24:13;6.10;;;2.20;;
48993;SDS011;34804;49.214;12.276;2022-07-31T11:26:54;4.60;;;2.35;;
48993;SDS011;34804;49.214;12.276;2022-07-31T11:32:16;5.40;;;2.17;;
48993;SDS011;34804;49.214;12.276;2022-07-31T11:34:52;5.10;;;2.15;;
48993;SDS011;34804;49.214;12.276;2022-07-31T11:37:21;3.80;;;1.70;;
48993;SDS011;34804;49.214;12.276;2022-07-31T11:39:50;6.03;;;1.90;;
48993;SDS011;34804;49.214;12.276;2022-07-31T11:42:19;6.28;;;2.38;;
48993;SDS011;34804;49.214;12.276;2022-07-31T11:45:00;3.67;;;1.90;;
48993;SDS011;34804;49.214;12.276;2022-07-31T11:47:38;3.85;;;1.75;;
48993;SDS011;34804;49.214;12.276;2022-07-31T11:50:25;3.65;;;1.77;;
48993;SDS011;34804;49.214;12.276;2022-07-31T11:53:05;3.88;;;1.58;;
48993;SDS011;34804;49.214;12.276;2022-07-31T11:55:42;4.47;;;1.55;;
48993;SDS011;34804;49.214;12.276;2022-07-31T11:58:13;3.47;;;1.77;;
48993;SDS011;34804;49.214;12.276;2022-07-31T12:00:45;5.40;;;1.55;;
48993;SDS011;34804;49.214;12.276;2022-07-31T12:05:56;4.70;;;1.85;;
48993;SDS011;34804;49.214;12.276;2022-07-31T12:08:24;2.55;;;1.20;;
48993;SDS011;34804;49.214;12.276;2022-07-31T12:10:53;3.45;;;1.50;;
48993;SDS011;34804;49.214;12.276;2022-07-31T12:13:22;3.85;;;1.50;;
48993;SDS011;34804;49.214;12.276;2022-07-31T12:15:57;3.83;;;1.63;;
48993;SDS011;34804;49.214;12.276;2022-07-31T12:18:53;3.13;;;1.38;;
48993;SDS011;34804;49.214;12.276;2022-07-31T12:21:34;4.63;;;1.40;;
48993;SDS011;34804;49.214;12.276;2022-07-31T12:24:09;3.17;;;1.52;;
48993;SDS011;34804;49.214;12.276;2022-07-31T12:26:38;3.47;;;1.48;;
48993;SDS011;34804;49.214;12.276;2022-07-31T12:29:09;4.20;;;1.67;;
48993;SDS011;34804;49.214;12.276;2022-07-31T12:34:51;3.58;;;1.35;;
48993;SDS011;34804;49.214;12.276;2022-07-31T12:37:12;3.55;;;1.55;;
48993;SDS011;34804;49.214;12.276;2022-07-31T12:42:29;3.75;;;1.63;;
48993;SDS011;34804;49.214;12.276;2022-07-31T12:45:07;3.20;;;1.60;;
48993;SDS011;34804;49.214;12.276;2022-07-31T12:47:45;2.85;;;1.30;;
48993;SDS011;34804;49.214;12.276;2022-07-31T12:50:17;2.95;;;1.33;;
48993;SDS011;34804;49.214;12.276;2022-07-31T12:52:52;4.93;;;1.50;;
48993;SDS011;34804;49.214;12.276;2022-07-31T12:55:19;3.33;;;1.33;;
48993;SDS011;34804;49.214;12.276;2022-07-31T12:57:47;4.00;;;1.70;;
48993;SDS011;34804;49.214;12.276;2022-07-31T13:00:17;2.53;;;1.20;;
48993;SDS011;34804;49.214;12.276;2022-07-31T13:02:48;4.53;;;1.58;;
48993;SDS011;34804;49.214;12.276;2022-07-31T13:05:15;3.20;;;1.40;;
48993;SDS011;34804;49.214;12.276;2022-07-31T13:07:42;4.35;;;1.52;;
48993;SDS011;34804;49.214;12.276;2022-07-31T13:10:09;3.92;;;1.40;;
48993;SDS011;34804;49.214;12.276;2022-07-31T13:12:47;3.70;;;1.50;;
48993;SDS011;34804;49.214;12.276;2022-07-31T13:15:16;3.45;;;1.52;;
48993;SDS011;34804;49.214;12.276;2022-07-31T13:17:45;3.42;;;1.40;;
48993;SDS011;34804;49.214;12.276;2022-07-31T13:20:15;4.68;;;1.40;;
48993;SDS011;34804;49.214;12.276;2022-07-31T13:22:42;4.82;;;1.50;;
48993;SDS011;34804;49.214;12.276;2022-07-31T13:25:09;2.90;;;1.45;;
48993;SDS011;34804;49.214;12.276;2022-07-31T13:27:36;3.28;;;1.25;;
48993;SDS011;34804;49.214;12.276;2022-07-31T13:30:03;2.75;;;1.20;;
48993;SDS011;34804;49.214;12.276;2022-07-31T13:32:31;2.85;;;1.25;;
48993;SDS011;34804;49.214;12.276;2022-07-31T13:34:58;2.75;;;1.38;;
48993;SDS011;34804;49.214;12.276;2022-07-31T13:37:44;2.83;;;1.33;;
48993;SDS011;34804;49.214;12.276;2022-07-31T13:40:12;3.10;;;1.25;;
48993;SDS011;34804;49.214;12.276;2022-07-31T13:42:39;3.17;;;1.35;;
48993;SDS011;34804;49.214;12.276;2022-07-31T13:45:06;2.45;;;1.30;;
48993;SDS011;34804;49.214;12.276;2022-07-31T13:47:34;2.13;;;1.15;;
48993;SDS011;34804;49.214;12.276;2022-07-31T13:50:17;3.60;;;1.52;;
48993;SDS011;34804;49.214;12.276;2022-07-31T13:52:44;3.22;;;1.30;;
48993;SDS011;34804;49.214;12.276;2022-07-31T13:55:11;3.45;;;1.40;;
48993;SDS011;34804;49.214;12.276;2022-07-31T13:57:38;2.72;;;1.20;;
48993;SDS011;34804;49.214;12.276;2022-07-31T14:00:04;2.97;;;1.20;;
48993;SDS011;34804;49.214;12.276;2022-07-31T14:02:32;4.30;;;1.40;;
48993;SDS011;34804;49.214;12.276;2022-07-31T14:04:59;2.95;;;1.10;;
48993;SDS011;34804;49.214;12.276;2022-07-31T14:07:27;2.50;;;1.20;;
48993;SDS011;34804;49.214;12.276;2022-07-31T14:10:14;2.95;;;1.50;;
48993;SDS011;34804;49.214;12.276;2022-07-31T14:12:45;3.13;;;1.30;;
48993;SDS011;34804;49.214;12.276;2022-07-31T14:15:13;2.72;;;1.20;;
48993;SDS011;34804;49.214;12.276;2022-07-31T14:17:39;2.30;;;1.13;;
48993;SDS011;34804;49.214;12.276;2022-07-31T14:20:06;3.25;;;1.30;;
48993;SDS011;34804;49.214;12.276;2022-07-31T14:22:34;5.53;;;1.33;;
48993;SDS011;34804;49.214;12.276;2022-07-31T14:25:01;2.17;;;1.17;;
48993;SDS011;34804;49.214;12.276;2022-07-31T14:27:28;2.83;;;1.40;;
48993;SDS011;34804;49.214;12.276;2022-07-31T14:29:55;3.70;;;1.40;;
48993;SDS011;34804;49.214;12.276;2022-07-31T14:32:22;2.92;;;1.55;;
48993;SDS011;34804;49.214;12.276;2022-07-31T14:34:50;3.17;;;1.27;;
48993;SDS011;34804;49.214;12.276;2022-07-31T14:37:17;4.68;;;1.70;;
48993;SDS011;34804;49.214;12.276;2022-07-31T14:39:45;3.17;;;1.45;;
48993;SDS011;34804;49.214;12.276;2022-07-31T14:42:12;3.38;;;1.48;;
48993;SDS011;34804;49.214;12.276;2022-07-31T14:44:39;2.88;;;1.45;;
48993;SDS011;34804;49.214;12.276;2022-07-31T14:47:08;3.97;;;1.40;;
48993;SDS011;34804;49.214;12.276;2022-07-31T14:49:36;4.03;;;1.40;;
48993;SDS011;34804;49.214;12.276;2022-07-31T14:52:24;3.00;;;1.50;;
48993;SDS011;34804;49.214;12.276;2022-07-31T14:54:52;4.07;;;1.25;;
48993;SDS011;34804;49.214;12.276;2022-07-31T14:57:19;2.53;;;1.30;;
48993;SDS011;34804;49.214;12.276;2022-07-31T14:59:48;2.95;;;1.20;;
48993;SDS011;34804;49.214;12.276;2022-07-31T15:02:15;2.65;;;1.20;;
48993;SDS011;34804;49.214;12.276;2022-07-31T15:04:47;4.37;;;1.30;;
48993;SDS011;34804;49.214;12.276;2022-07-31T15:07:15;5.43;;;1.50;;
48993;SDS011;34804;49.214;12.276;2022-07-31T15:10:03;2.50;;;1.38;;
48993;SDS011;34804;49.214;12.276;2022-07-31T15:12:31;3.20;;;1.45;;
48993;SDS011;34804;49.214;12.276;2022-07-31T15:14:58;3.60;;;1.42;;
48993;SDS011;34804;49.214;12.276;2022-07-31T15:17:25;3.90;;;1.60;;
48993;SDS011;34804;49.214;12.276;2022-07-31T15:19:52;4.88;;;1.40;;